Time;durP1;ratioP1;P1;durP2;ratioP2;P2;SDS_P1;SDS_P2;PMS_P1;PMS_P2;Temp;Humidity;BMP_temperature;BMP_pressure;BME280_temperature;BME280_humidity;BME280_pressure;Samples;Min_cycle;Max_cycle;Signal;HPM_P1;HPM_P2
2024/01/31 00:01:06;;;;;;;13.30;1.70;;;4.50;81.90;;;;;;5037528;28;20088;-74
2024/01/31 00:03:32;;;;;;;13.03;2.00;;;4.50;81.50;;;;;;5036658;28;20056;-74
2024/01/31 00:05:59;;;;;;;13.97;2.33;;;4.50;81.50;;;;;;5031121;28;20700;-73
2024/01/31 00:08:24;;;;;;;12.40;2.00;;;4.50;81.50;;;;;;5026580;28;20060;-73
2024/01/31 00:10:50;;;;;;;13.87;1.67;;;4.50;81.20;;;;;;5027964;28;20046;-73
2024/01/31 00:13:16;;;;;;;14.13;2.00;;;4.50;81.30;;;;;;5025891;28;20042;-73
2024/01/31 00:15:41;;;;;;;14.27;2.00;;;4.50;81.20;;;;;;5030954;28;20063;-72
2024/01/31 00:18:07;;;;;;;12.23;1.83;;;4.50;81.20;;;;;;5028174;28;20049;-73
2024/01/31 00:20:33;;;;;;;13.70;2.30;;;4.60;81.40;;;;;;5035706;28;20163;-74
2024/01/31 00:22:58;;;;;;;13.37;2.20;;;4.50;81.40;;;;;;5016078;28;20481;-73
2024/01/31 00:25:24;;;;;;;8.57;2.07;;;4.50;81.20;;;;;;5033993;28;20630;-73
2024/01/31 00:27:50;;;;;;;10.00;1.50;;;4.50;81.00;;;;;;5034640;28;20439;-73
2024/01/31 00:30:16;;;;;;;13.40;1.43;;;4.50;80.70;;;;;;5025792;28;20499;-73
2024/01/31 00:32:42;;;;;;;7.10;1.27;;;4.50;80.80;;;;;;5032586;28;20049;-73
2024/01/31 00:35:08;;;;;;;5.27;0.80;;;4.50;80.50;;;;;;5018256;28;20046;-73
2024/01/31 00:37:33;;;;;;;4.37;0.80;;;4.50;80.40;;;;;;5031056;28;20429;-73
2024/01/31 00:39:59;;;;;;;6.77;1.30;;;4.50;80.00;;;;;;5036492;28;20055;-73
2024/01/31 00:42:25;;;;;;;8.33;0.83;;;4.50;80.10;;;;;;5026090;28;20048;-73
2024/01/31 00:44:51;;;;;;;8.13;1.00;;;4.50;79.90;;;;;;5029011;28;20045;-72
2024/01/31 00:47:16;;;;;;;7.20;1.20;;;4.50;79.60;;;;;;5028447;28;20572;-73
2024/01/31 00:49:42;;;;;;;11.37;1.20;;;4.50;79.20;;;;;;5031592;28;20405;-72
2024/01/31 00:52:07;;;;;;;7.47;1.37;;;4.50;79.00;;;;;;5029848;28;20438;-73
2024/01/31 00:54:33;;;;;;;6.47;1.10;;;4.50;78.90;;;;;;5028943;28;20042;-73
2024/01/31 00:56:59;;;;;;;8.60;1.10;;;4.50;79.00;;;;;;5038660;28;20045;-72
2024/01/31 00:59:25;;;;;;;6.70;0.63;;;4.50;78.90;;;;;;5036777;28;20053;-72
2024/01/31 01:01:50;;;;;;;10.40;1.27;;;4.50;78.80;;;;;;5036082;28;20430;-73
2024/01/31 01:04:16;;;;;;;9.60;1.13;;;4.50;78.90;;;;;;5030718;28;20451;-72
2024/01/31 01:06:42;;;;;;;5.13;1.10;;;4.50;78.30;;;;;;5045298;28;20053;-72
2024/01/31 01:09:08;;;;;;;10.90;1.40;;;4.50;77.20;;;;;;5049184;28;20087;-73
2024/01/31 01:11:34;;;;;;;11.00;0.90;;;4.50;77.00;;;;;;5048920;28;20128;-72
2024/01/31 01:13:59;;;;;;;8.97;0.97;;;4.50;76.10;;;;;;5051170;28;20596;-72
2024/01/31 01:16:25;;;;;;;8.37;1.23;;;4.50;76.30;;;;;;5051089;28;20044;-74
2024/01/31 01:18:51;;;;;;;5.57;1.33;;;4.50;76.60;;;;;;5049121;28;20400;-73
2024/01/31 01:21:16;;;;;;;8.43;1.23;;;4.50;76.40;;;;;;5047691;28;20415;-74
2024/01/31 01:23:42;;;;;;;8.23;1.20;;;4.40;76.00;;;;;;5054532;28;20132;-72
2024/01/31 01:26:08;;;;;;;6.63;1.03;;;4.40;76.00;;;;;;5054763;28;20045;-73
2024/01/31 01:28:33;;;;;;;4.47;0.90;;;4.40;76.20;;;;;;5049456;28;20044;-72
2024/01/31 01:30:59;;;;;;;5.70;1.10;;;4.40;76.40;;;;;;5051002;28;20136;-72
2024/01/31 01:33:26;;;;;;;8.37;1.20;;;4.30;76.50;;;;;;5051669;28;20057;-72
2024/01/31 01:35:51;;;;;;;10.93;1.30;;;4.30;76.80;;;;;;5045799;28;20136;-72
2024/01/31 01:38:17;;;;;;;9.07;1.17;;;4.30;76.90;;;;;;5052862;28;20048;-72
2024/01/31 01:40:44;;;;;;;6.03;1.10;;;4.20;77.20;;;;;;5059222;28;20480;-72
2024/01/31 01:43:20;;;;;;;6.57;1.37;;;4.20;77.50;;;;;;5056232;28;20040;-75
2024/01/31 01:45:46;;;;;;;5.90;0.77;;;4.20;77.40;;;;;;5053852;28;20072;-73
2024/01/31 01:48:13;;;;;;;4.37;0.83;;;4.10;77.60;;;;;;5042719;28;20080;-74
2024/01/31 01:50:40;;;;;;;10.47;1.03;;;4.10;77.60;;;;;;5048726;28;20135;-73
2024/01/31 01:53:06;;;;;;;6.27;1.00;;;4.10;77.70;;;;;;5047768;28;20472;-73
2024/01/31 01:55:32;;;;;;;10.97;0.90;;;4.10;77.90;;;;;;5052999;28;20056;-72
2024/01/31 01:57:58;;;;;;;9.43;1.00;;;4.10;77.90;;;;;;5051634;28;20075;-72
2024/01/31 02:00:27;;;;;;;6.73;1.20;;;4.10;78.00;;;;;;5053988;28;20065;-72
2024/01/31 02:02:52;;;;;;;6.87;1.03;;;4.10;78.00;;;;;;5044222;28;20614;-71
2024/01/31 02:05:18;;;;;;;11.87;1.00;;;4.10;78.10;;;;;;5055881;28;20048;-72
2024/01/31 02:07:44;;;;;;;5.60;0.80;;;4.00;78.20;;;;;;5054324;28;20048;-72
2024/01/31 02:10:10;;;;;;;5.53;1.07;;;4.00;78.20;;;;;;5046906;28;20048;-72
2024/01/31 02:12:36;;;;;;;9.53;0.77;;;4.00;78.10;;;;;;5048388;28;20049;-71
2024/01/31 02:15:04;;;;;;;5.23;1.00;;;3.90;77.90;;;;;;5036416;28;20055;-72
2024/01/31 02:17:33;;;;;;;8.17;1.40;;;3.90;77.80;;;;;;5049706;28;20052;-73
2024/01/31 02:19:59;;;;;;;5.93;1.03;;;3.90;78.00;;;;;;5052660;28;20060;-72
2024/01/31 02:22:24;;;;;;;7.97;1.07;;;3.90;77.90;;;;;;5052320;28;20119;-72
2024/01/31 02:24:50;;;;;;;7.87;1.00;;;3.80;78.00;;;;;;5049074;28;20129;-72
2024/01/31 02:27:16;;;;;;;7.10;1.03;;;3.80;78.00;;;;;;5048792;28;20037;-72
2024/01/31 02:29:42;;;;;;;6.93;1.00;;;3.70;78.00;;;;;;5047509;28;20059;-72
2024/01/31 02:32:07;;;;;;;6.70;1.00;;;3.70;78.00;;;;;;5063872;28;20677;-73
2024/01/31 02:34:33;;;;;;;10.20;1.07;;;3.70;77.80;;;;;;5046828;28;20481;-72
2024/01/31 02:36:59;;;;;;;6.77;0.97;;;3.60;77.80;;;;;;5047128;28;20091;-73
2024/01/31 02:39:25;;;;;;;5.60;0.90;;;3.60;77.90;;;;;;5052745;28;20102;-72
2024/01/31 02:41:52;;;;;;;7.07;0.90;;;3.60;77.80;;;;;;5053783;28;20355;-72
2024/01/31 02:44:18;;;;;;;7.17;1.07;;;3.60;77.90;;;;;;5053430;28;20052;-72
2024/01/31 02:46:44;;;;;;;9.73;1.17;;;3.60;78.00;;;;;;5046261;28;20077;-71
2024/01/31 02:49:10;;;;;;;7.47;1.10;;;3.60;78.00;;;;;;5048255;28;20487;-73
2024/01/31 02:51:36;;;;;;;7.43;1.07;;;3.60;78.00;;;;;;5061829;28;20052;-72
2024/01/31 02:54:01;;;;;;;8.37;1.20;;;3.60;77.80;;;;;;5058238;28;20052;-72
2024/01/31 02:56:27;;;;;;;7.97;1.20;;;3.60;77.80;;;;;;5055414;28;20168;-72
2024/01/31 02:58:53;;;;;;;8.87;0.80;;;3.60;77.60;;;;;;5048269;28;20512;-72
2024/01/31 03:01:18;;;;;;;8.90;0.97;;;3.60;77.60;;;;;;5047758;28;20411;-72
2024/01/31 03:03:44;;;;;;;6.53;1.27;;;3.70;77.30;;;;;;5051884;28;20056;-71
2024/01/31 03:06:10;;;;;;;2.80;0.53;;;3.70;77.40;;;;;;5046156;28;20583;-72
2024/01/31 03:08:36;;;;;;;9.27;1.50;;;3.70;77.50;;;;;;5052363;28;20135;-72
2024/01/31 03:11:02;;;;;;;7.97;1.00;;;3.70;77.40;;;;;;5051904;28;20476;-73
2024/01/31 03:13:27;;;;;;;7.37;1.33;;;3.70;77.20;;;;;;5047573;28;20091;-72
2024/01/31 03:15:53;;;;;;;8.90;1.60;;;3.70;77.20;;;;;;5047736;28;20136;-72
2024/01/31 03:18:18;;;;;;;8.27;1.30;;;3.70;77.30;;;;;;5058141;28;20045;-72
2024/01/31 03:20:44;;;;;;;10.17;1.17;;;3.70;77.30;;;;;;5061036;28;20063;-72
2024/01/31 03:23:10;;;;;;;8.10;1.10;;;3.70;77.30;;;;;;5057117;28;20045;-72
2024/01/31 03:25:36;;;;;;;8.07;1.37;;;3.80;77.20;;;;;;5046021;28;20503;-73
2024/01/31 03:28:01;;;;;;;7.87;1.43;;;3.80;77.00;;;;;;5045351;28;20132;-72
2024/01/31 03:30:27;;;;;;;12.10;1.50;;;3.70;77.10;;;;;;5046968;28;20045;-72
2024/01/31 03:32:53;;;;;;;7.60;1.80;;;3.80;76.80;;;;;;5047815;28;20056;-72
2024/01/31 03:35:19;;;;;;;8.27;1.37;;;3.80;77.00;;;;;;5049162;28;20159;-72
2024/01/31 03:37:44;;;;;;;11.27;1.50;;;3.90;76.70;;;;;;5050944;28;20040;-71
2024/01/31 03:40:10;;;;;;;10.83;1.57;;;3.90;76.80;;;;;;5059220;28;20115;-72
2024/01/31 03:42:36;;;;;;;10.47;1.40;;;3.90;76.60;;;;;;5050048;28;20444;-74
2024/01/31 03:45:04;;;;;;;8.97;1.30;;;3.90;76.60;;;;;;5042503;28;20052;-72
2024/01/31 03:47:30;;;;;;;7.53;1.40;;;3.90;76.80;;;;;;5043363;28;20037;-72
2024/01/31 03:49:55;;;;;;;10.77;1.50;;;3.90;76.80;;;;;;5044411;28;20049;-72
2024/01/31 03:52:22;;;;;;;11.27;1.30;;;3.90;76.60;;;;;;5042748;28;20049;-72
2024/01/31 03:54:48;;;;;;;7.17;1.30;;;3.90;76.70;;;;;;5042841;28;20041;-72
2024/01/31 03:57:14;;;;;;;5.50;1.17;;;3.80;76.80;;;;;;5043931;28;20061;-72
2024/01/31 03:59:39;;;;;;;8.30;1.30;;;3.70;76.70;;;;;;5045190;28;20209;-72
2024/01/31 04:02:05;;;;;;;13.37;1.40;;;3.60;76.90;;;;;;5042530;28;20087;-71
2024/01/31 04:04:31;;;;;;;8.07;1.20;;;3.50;77.00;;;;;;5042483;28;20141;-73
2024/01/31 04:06:57;;;;;;;9.40;1.40;;;3.50;77.20;;;;;;5043714;28;20404;-72
2024/01/31 04:09:23;;;;;;;9.47;1.37;;;3.30;77.40;;;;;;5043381;28;20275;-72
2024/01/31 04:11:48;;;;;;;10.77;0.93;;;3.30;77.50;;;;;;5043014;28;20053;-72
2024/01/31 04:14:14;;;;;;;9.67;1.20;;;3.30;77.60;;;;;;5044256;28;20055;-71
2024/01/31 04:16:40;;;;;;;10.70;1.30;;;3.10;77.70;;;;;;5043885;28;20053;-71
2024/01/31 04:19:07;;;;;;;9.23;1.37;;;3.10;77.80;;;;;;5044451;28;20049;-71
2024/01/31 04:21:32;;;;;;;5.73;1.13;;;3.00;77.80;;;;;;5043630;28;20446;-71
2024/01/31 04:23:58;;;;;;;8.77;1.23;;;3.00;78.00;;;;;;5043135;28;20108;-72
2024/01/31 04:26:24;;;;;;;11.93;1.33;;;2.90;78.10;;;;;;5044935;28;20048;-72
2024/01/31 04:28:49;;;;;;;9.10;1.10;;;2.80;78.20;;;;;;5056576;28;20514;-71
2024/01/31 04:31:15;;;;;;;8.03;1.20;;;2.80;78.30;;;;;;5058187;28;20416;-71
2024/01/31 04:33:42;;;;;;;7.47;1.10;;;2.80;78.40;;;;;;5048416;28;20085;-72
2024/01/31 04:36:08;;;;;;;10.53;1.40;;;2.70;78.60;;;;;;5038796;28;20049;-72
2024/01/31 04:38:34;;;;;;;10.33;2.03;;;2.70;78.70;;;;;;5044383;28;20049;-72
2024/01/31 04:41:01;;;;;;;7.00;1.30;;;2.70;78.90;;;;;;5047985;28;20087;-72
2024/01/31 04:43:27;;;;;;;6.00;0.93;;;2.70;79.00;;;;;;5047401;28;20073;-72
2024/01/31 04:45:53;;;;;;;14.47;1.40;;;2.70;79.10;;;;;;5047497;28;20132;-71
2024/01/31 04:48:18;;;;;;;8.60;1.20;;;2.70;79.10;;;;;;5043814;28;20504;-72
2024/01/31 04:50:44;;;;;;;9.93;1.40;;;2.60;79.10;;;;;;5051745;28;20128;-72
2024/01/31 04:53:10;;;;;;;14.07;1.13;;;2.60;79.10;;;;;;5045289;28;20087;-71
2024/01/31 04:55:35;;;;;;;7.97;1.40;;;2.50;79.20;;;;;;5048366;28;20048;-72
2024/01/31 04:58:01;;;;;;;5.70;1.10;;;2.50;79.20;;;;;;5059602;28;20155;-72
2024/01/31 05:00:28;;;;;;;4.37;1.27;;;2.50;79.30;;;;;;5056265;28;20049;-72
2024/01/31 05:02:53;;;;;;;8.63;0.90;;;2.50;79.30;;;;;;5049108;28;20102;-71
2024/01/31 05:05:19;;;;;;;9.70;1.10;;;2.50;79.40;;;;;;5043722;28;20053;-72
2024/01/31 05:07:45;;;;;;;10.07;1.27;;;2.50;79.60;;;;;;5044021;28;20049;-72
2024/01/31 05:10:12;;;;;;;6.77;1.30;;;2.50;79.70;;;;;;5043230;28;20126;-72
2024/01/31 05:12:37;;;;;;;4.40;1.13;;;2.50;79.70;;;;;;5047437;28;20037;-72
2024/01/31 05:15:04;;;;;;;9.93;1.70;;;2.50;79.70;;;;;;5029902;28;20060;-72
2024/01/31 05:17:30;;;;;;;5.97;1.40;;;2.50;79.70;;;;;;5046902;28;20102;-72
2024/01/31 05:19:56;;;;;;;3.70;0.93;;;2.50;79.80;;;;;;5044763;28;20424;-72
2024/01/31 05:22:22;;;;;;;4.53;1.20;;;2.50;79.80;;;;;;5044736;28;20348;-73
2024/01/31 05:24:47;;;;;;;6.30;1.00;;;2.50;79.90;;;;;;5046404;28;20049;-73
2024/01/31 05:27:13;;;;;;;12.80;3.50;;;2.60;80.00;;;;;;5046915;28;20045;-72
2024/01/31 05:29:39;;;;;;;8.87;1.37;;;2.60;79.90;;;;;;5050026;28;20447;-72
2024/01/31 05:32:05;;;;;;;8.57;1.50;;;2.70;80.00;;;;;;5051097;28;20055;-72
2024/01/31 05:34:31;;;;;;;9.97;1.47;;;2.70;79.90;;;;;;5049634;28;20159;-72
2024/01/31 05:36:56;;;;;;;8.07;1.50;;;2.70;80.00;;;;;;5048243;28;20058;-73
2024/01/31 05:39:22;;;;;;;8.33;1.23;;;2.70;80.00;;;;;;5053937;28;20052;-72
2024/01/31 05:41:48;;;;;;;6.50;1.50;;;2.80;80.20;;;;;;5049228;28;20456;-71
2024/01/31 05:44:13;;;;;;;10.13;1.23;;;2.80;80.20;;;;;;5057320;28;20041;-71
2024/01/31 05:46:39;;;;;;;13.27;4.03;;;2.80;80.20;;;;;;5054981;28;20060;-72
2024/01/31 05:49:06;;;;;;;7.23;1.37;;;2.90;80.10;;;;;;5059116;28;20056;-72
2024/01/31 05:51:31;;;;;;;7.17;1.53;;;2.90;80.20;;;;;;5045923;28;20045;-73
2024/01/31 05:53:57;;;;;;;9.03;1.30;;;2.90;80.20;;;;;;5053170;28;20535;-71
2024/01/31 05:56:23;;;;;;;11.03;1.60;;;3.00;80.30;;;;;;5073608;28;20048;-72
2024/01/31 05:58:49;;;;;;;6.87;1.70;;;3.00;80.30;;;;;;5056323;28;20076;-71
2024/01/31 06:01:15;;;;;;;7.97;1.50;;;3.00;80.40;;;;;;5047942;28;20120;-72
2024/01/31 06:03:40;;;;;;;10.20;1.60;;;3.10;80.40;;;;;;5048206;28;20656;-71
2024/01/31 06:06:06;;;;;;;7.60;1.47;;;3.10;80.50;;;;;;5047522;28;20131;-72
2024/01/31 06:08:33;;;;;;;8.33;1.37;;;3.10;80.50;;;;;;5048765;28;20073;-73
2024/01/31 06:11:04;;;;;;;9.70;1.60;;;3.10;80.50;;;;;;5040505;28;20048;-72
2024/01/31 06:13:30;;;;;;;12.45;1.50;;;3.10;80.50;;;;;;5041024;28;20072;-72
2024/01/31 06:15:56;;;;;;;6.77;1.20;;;3.10;80.60;;;;;;5025047;28;20128;-72
2024/01/31 06:18:22;;;;;;;9.40;1.57;;;3.10;80.60;;;;;;5043681;28;20079;-71
2024/01/31 06:20:51;;;;;;;7.17;1.50;;;3.10;80.70;;;;;;5049468;28;20485;-72
2024/01/31 06:23:17;;;;;;;6.83;1.50;;;3.10;80.70;;;;;;5055448;28;20392;-72
2024/01/31 06:25:43;;;;;;;7.43;1.47;;;3.10;80.70;;;;;;5050267;28;20052;-71
2024/01/31 06:28:09;;;;;;;9.53;1.80;;;3.10;80.80;;;;;;5048479;28;20048;-71
2024/01/31 06:30:43;;;;;;;13.73;1.60;;;3.10;80.80;;;;;;5044263;28;20049;-72
2024/01/31 06:33:10;;;;;;;14.40;1.80;;;3.10;80.70;;;;;;5034528;28;20045;-72
2024/01/31 06:35:37;;;;;;;10.10;1.80;;;3.10;80.70;;;;;;5038927;28;20159;-72
2024/01/31 06:38:03;;;;;;;12.37;1.80;;;3.10;80.70;;;;;;5042447;28;20099;-72
2024/01/31 06:40:30;;;;;;;13.60;2.03;;;3.10;80.70;;;;;;5050245;28;20080;-72
2024/01/31 06:42:56;;;;;;;9.13;1.67;;;3.10;80.50;;;;;;5041744;28;20049;-72
2024/01/31 06:45:24;;;;;;;13.23;2.03;;;3.10;80.40;;;;;;5044206;28;20059;-73
2024/01/31 06:47:51;;;;;;;12.97;1.83;;;3.20;80.40;;;;;;5048285;28;20044;-72
2024/01/31 06:50:17;;;;;;;13.27;1.90;;;3.20;80.30;;;;;;5046724;28;20177;-72
2024/01/31 06:52:43;;;;;;;10.50;1.90;;;3.20;80.10;;;;;;5047510;28;20040;-72
2024/01/31 06:55:09;;;;;;;8.80;2.00;;;3.30;80.00;;;;;;5046723;28;20098;-72
2024/01/31 06:57:37;;;;;;;9.50;1.73;;;3.30;80.00;;;;;;5045167;28;20059;-73
2024/01/31 07:00:07;;;;;;;11.50;1.70;;;3.30;79.90;;;;;;5042191;28;20059;-72
2024/01/31 07:02:32;;;;;;;9.27;2.00;;;3.30;79.90;;;;;;5037434;28;20049;-72
2024/01/31 07:04:58;;;;;;;11.37;1.77;;;3.30;79.60;;;;;;5042283;28;20063;-72
2024/01/31 07:07:24;;;;;;;12.63;1.77;;;3.30;79.40;;;;;;5041572;28;20480;-72
2024/01/31 07:09:49;;;;;;;10.57;2.13;;;3.30;79.30;;;;;;5044823;28;20079;-72
2024/01/31 07:12:15;;;;;;;8.97;2.00;;;3.30;79.10;;;;;;5049502;28;20492;-71
2024/01/31 07:14:42;;;;;;;12.47;1.80;;;3.40;78.50;;;;;;5047790;28;20420;-72
2024/01/31 07:17:08;;;;;;;8.73;1.90;;;3.50;78.60;;;;;;5027542;28;21154;-72
2024/01/31 07:19:33;;;;;;;15.50;2.40;;;3.50;78.50;;;;;;5026214;28;20057;-72
2024/01/31 07:21:59;;;;;;;11.27;2.17;;;3.50;78.50;;;;;;5023237;28;20057;-72
2024/01/31 07:24:25;;;;;;;13.00;2.10;;;3.50;78.40;;;;;;5027443;28;20052;-73
2024/01/31 07:26:51;;;;;;;10.00;1.83;;;3.50;78.30;;;;;;5026553;28;20136;-73
2024/01/31 07:29:16;;;;;;;12.80;1.97;;;3.50;78.00;;;;;;5026972;28;20094;-74
2024/01/31 07:31:42;;;;;;;8.73;1.93;;;3.50;77.80;;;;;;5024843;28;20053;-74
2024/01/31 07:34:08;;;;;;;8.60;1.70;;;3.50;77.60;;;;;;5028177;28;20081;-71
2024/01/31 07:36:33;;;;;;;9.03;2.00;;;3.50;77.30;;;;;;5026317;28;20053;-72
2024/01/31 07:38:59;;;;;;;9.33;1.73;;;3.60;76.90;;;;;;5025936;28;20056;-72
2024/01/31 07:41:25;;;;;;;12.10;2.60;;;3.60;76.90;;;;;;5027098;28;20045;-73
2024/01/31 07:43:50;;;;;;;9.90;1.97;;;3.60;77.00;;;;;;5025485;28;20448;-73
2024/01/31 07:46:16;;;;;;;12.50;2.40;;;3.60;77.00;;;;;;5023420;28;20052;-73
2024/01/31 07:48:42;;;;;;;6.93;1.80;;;3.60;77.10;;;;;;5026591;28;20055;-72
2024/01/31 07:51:08;;;;;;;12.47;2.57;;;3.60;77.00;;;;;;5024207;28;20519;-72
2024/01/31 07:53:33;;;;;;;9.13;1.93;;;3.60;77.00;;;;;;5024806;28;20075;-72
2024/01/31 07:55:59;;;;;;;10.37;2.33;;;3.60;76.90;;;;;;5025610;28;20147;-72
2024/01/31 07:58:25;;;;;;;11.13;2.60;;;3.60;77.00;;;;;;5013591;28;20045;-73
2024/01/31 08:00:51;;;;;;;8.47;2.50;;;3.70;77.10;;;;;;5020637;28;20408;-72
2024/01/31 08:03:17;;;;;;;10.23;2.53;;;3.60;77.30;;;;;;5020710;28;20415;-73
2024/01/31 08:05:42;;;;;;;11.77;3.00;;;3.70;77.30;;;;;;5012590;28;20052;-72
2024/01/31 08:08:08;;;;;;;10.67;2.80;;;3.70;77.10;;;;;;5022523;28;20559;-73
2024/01/31 08:10:34;;;;;;;8.30;2.80;;;3.60;77.20;;;;;;5023054;28;20045;-72
2024/01/31 08:12:59;;;;;;;9.60;2.70;;;3.70;77.30;;;;;;5021202;28;20079;-72
2024/01/31 08:15:25;;;;;;;8.53;2.50;;;3.70;77.40;;;;;;5024192;28;20049;-73
2024/01/31 08:17:51;;;;;;;10.03;2.60;;;3.70;77.30;;;;;;5024332;28;20531;-72
2024/01/31 08:20:17;;;;;;;9.73;2.90;;;3.70;77.20;;;;;;5021309;28;20116;-74
2024/01/31 08:22:42;;;;;;;8.23;2.83;;;3.70;77.30;;;;;;5023798;28;20146;-74
2024/01/31 08:25:09;;;;;;;7.23;2.63;;;3.70;77.30;;;;;;5023647;28;20488;-72
2024/01/31 08:27:34;;;;;;;8.20;2.87;;;3.80;77.20;;;;;;5022816;28;20053;-73
2024/01/31 08:30:00;;;;;;;9.53;2.73;;;3.80;77.20;;;;;;5021637;28;20590;-73
2024/01/31 08:32:26;;;;;;;9.40;3.10;;;3.90;77.20;;;;;;5022217;28;20274;-72
2024/01/31 08:34:52;;;;;;;9.93;3.07;;;3.90;77.20;;;;;;5021362;28;20087;-73
2024/01/31 08:37:18;;;;;;;9.20;3.17;;;3.90;76.70;;;;;;5023782;28;20091;-73
2024/01/31 08:39:43;;;;;;;7.50;3.80;;;3.90;77.00;;;;;;5022444;28;20056;-73
2024/01/31 08:42:09;;;;;;;9.63;3.70;;;3.90;76.80;;;;;;5023328;28;20405;-73
2024/01/31 08:44:35;;;;;;;10.43;3.53;;;3.90;76.70;;;;;;5025827;28;20515;-72
2024/01/31 08:47:01;;;;;;;8.10;3.47;;;3.90;76.60;;;;;;5023036;28;20068;-73
2024/01/31 08:49:26;;;;;;;8.03;3.73;;;4.00;76.70;;;;;;5022019;28;20496;-74
2024/01/31 08:51:53;;;;;;;11.23;4.53;;;4.00;76.10;;;;;;5022708;28;20045;-72
2024/01/31 08:54:20;;;;;;;9.70;4.40;;;4.10;76.20;;;;;;5024566;28;20198;-71
2024/01/31 08:56:46;;;;;;;7.23;4.07;;;4.10;75.80;;;;;;5022382;28;20144;-73
2024/01/31 08:59:12;;;;;;;8.10;4.33;;;4.10;75.90;;;;;;5022396;28;20053;-74
2024/01/31 09:01:44;;;;;;;10.27;4.47;;;4.20;76.10;;;;;;5022292;28;20049;-72
2024/01/31 09:04:09;;;;;;;11.38;5.07;;;4.20;76.10;;;;;;5024722;28;20527;-72
2024/01/31 09:06:35;;;;;;;10.13;5.17;;;4.30;75.90;;;;;;5023395;28;20517;-74
2024/01/31 09:09:01;;;;;;;10.10;5.40;;;4.30;76.00;;;;;;5021779;28;20521;-72
2024/01/31 09:11:27;;;;;;;9.63;4.87;;;4.30;76.10;;;;;;5022839;28;20052;-72
2024/01/31 09:13:52;;;;;;;10.87;5.40;;;4.40;76.10;;;;;;5023104;28;20319;-73
2024/01/31 09:16:18;;;;;;;8.13;5.10;;;4.40;76.10;;;;;;5021671;28;20052;-74
2024/01/31 09:18:44;;;;;;;8.57;5.13;;;4.40;76.00;;;;;;5023121;28;20045;-73
2024/01/31 09:21:21;;;;;;;11.90;5.50;;;4.40;76.00;;;;;;5024551;28;20045;-72
2024/01/31 09:23:47;;;;;;;11.37;6.40;;;4.50;76.10;;;;;;5025301;28;20140;-72
2024/01/31 09:26:13;;;;;;;9.50;6.70;;;4.50;75.50;;;;;;5026134;28;20049;-72
2024/01/31 09:28:39;;;;;;;9.87;6.27;;;4.50;75.40;;;;;;5025217;28;20045;-72
2024/01/31 09:31:05;;;;;;;11.10;6.40;;;4.50;75.40;;;;;;5027400;28;20075;-72
2024/01/31 09:33:32;;;;;;;11.87;6.93;;;4.60;75.50;;;;;;5027576;28;20311;-74
2024/01/31 09:35:58;;;;;;;10.70;6.80;;;4.60;75.50;;;;;;5026507;28;20052;-74
2024/01/31 09:38:25;;;;;;;11.83;6.77;;;4.70;75.70;;;;;;5027182;28;20056;-72
2024/01/31 09:40:51;;;;;;;10.67;6.77;;;4.70;75.60;;;;;;5023228;28;20049;-74
2024/01/31 09:43:21;;;;;;;16.27;7.03;;;4.70;75.70;;;;;;5023797;28;20048;-72
2024/01/31 09:45:49;;;;;;;9.57;7.33;;;4.70;75.90;;;;;;5041515;28;20504;-74
2024/01/31 09:48:18;;;;;;;14.13;7.60;;;4.70;75.80;;;;;;5025464;28;20063;-72
2024/01/31 09:50:43;;;;;;;12.90;7.83;;;4.80;75.10;;;;;;5024520;28;20304;-73
2024/01/31 09:53:11;;;;;;;12.13;8.43;;;4.80;75.30;;;;;;5025417;28;20053;-74
2024/01/31 09:55:37;;;;;;;12.00;8.50;;;4.90;75.00;;;;;;5025393;28;20045;-74
2024/01/31 09:58:03;;;;;;;12.07;8.93;;;4.90;74.40;;;;;;5025615;28;20461;-73
2024/01/31 10:00:30;;;;;;;12.90;9.57;;;4.90;74.60;;;;;;5025391;28;20068;-72
2024/01/31 10:02:55;;;;;;;14.43;10.13;;;4.90;74.10;;;;;;5024667;28;20061;-74
2024/01/31 10:05:21;;;;;;;14.23;9.93;;;4.90;73.40;;;;;;5026208;28;20473;-73
2024/01/31 10:07:47;;;;;;;16.33;10.57;;;5.00;72.70;;;;;;5026424;28;20227;-74
2024/01/31 10:10:13;;;;;;;12.77;10.20;;;5.00;73.00;;;;;;5022993;28;20075;-73
2024/01/31 10:12:39;;;;;;;12.60;10.83;;;5.00;73.00;;;;;;5021579;28;20053;-71
2024/01/31 10:15:08;;;;;;;14.03;10.07;;;5.10;72.40;;;;;;5024555;28;20412;-73
2024/01/31 10:17:34;;;;;;;14.60;10.77;;;5.10;72.40;;;;;;5024710;28;20053;-73
2024/01/31 10:20:06;;;;;;;14.93;10.73;;;5.10;72.30;;;;;;5024037;28;20167;-74
2024/01/31 10:22:33;;;;;;;16.00;11.37;;;5.20;71.90;;;;;;5024171;28;20085;-73
2024/01/31 10:24:59;;;;;;;13.23;11.00;;;5.30;72.30;;;;;;5022440;28;20104;-73
2024/01/31 10:27:24;;;;;;;16.33;11.73;;;5.30;72.50;;;;;;5024869;28;20088;-72
2024/01/31 10:29:53;;;;;;;13.00;10.63;;;5.30;72.20;;;;;;5027446;28;20064;-71
2024/01/31 10:32:21;;;;;;;13.23;10.83;;;5.30;71.90;;;;;;5025735;28;20049;-73
2024/01/31 10:34:48;;;;;;;13.93;10.77;;;5.40;71.80;;;;;;5030185;28;20095;-72
2024/01/31 10:37:15;;;;;;;13.63;10.97;;;5.50;72.10;;;;;;5027648;28;20150;-73
2024/01/31 10:39:41;;;;;;;13.43;10.20;;;5.50;72.10;;;;;;5029039;28;20060;-72
2024/01/31 10:42:08;;;;;;;12.97;9.57;;;5.50;72.60;;;;;;5028440;28;20544;-72
2024/01/31 10:44:34;;;;;;;14.20;10.30;;;5.50;72.20;;;;;;5028040;28;20048;-73
2024/01/31 10:46:59;;;;;;;11.93;9.53;;;5.60;72.00;;;;;;5027141;28;20111;-73
2024/01/31 10:49:25;;;;;;;12.90;10.33;;;5.60;72.10;;;;;;5010910;28;20084;-75
2024/01/31 10:51:54;;;;;;;11.20;9.17;;;5.60;72.20;;;;;;5028614;28;20068;-72
2024/01/31 10:54:25;;;;;;;12.23;8.93;;;5.60;72.40;;;;;;5027835;28;20061;-73
2024/01/31 10:56:51;;;;;;;13.90;7.13;;;5.60;72.10;;;;;;5027949;28;20053;-73
2024/01/31 10:59:17;;;;;;;12.40;9.53;;;5.60;71.90;;;;;;5025141;28;20056;-74
2024/01/31 11:01:51;;;;;;;12.00;8.90;;;5.60;72.60;;;;;;5028826;28;20128;-72
2024/01/31 11:04:17;;;;;;;11.50;8.77;;;5.60;72.60;;;;;;5026546;28;20055;-74
2024/01/31 11:06:43;;;;;;;11.80;8.60;;;5.60;72.50;;;;;;5026186;28;20057;-73
2024/01/31 11:09:25;;;;;;;11.13;9.40;;;5.60;72.60;;;;;;5026720;28;20110;-74
2024/01/31 11:12:05;;;;;;;13.80;10.60;;;5.60;72.60;;;;;;5027764;28;20044;-73
2024/01/31 11:14:32;;;;;;;15.20;10.40;;;5.60;72.90;;;;;;5028083;28;20053;-74
2024/01/31 11:17:10;;;;;;;12.37;9.97;;;5.60;73.10;;;;;;5025806;28;20135;-72
2024/01/31 11:19:50;;;;;;;12.73;10.53;;;5.70;73.40;;;;;;5026992;28;20044;-72
2024/01/31 11:22:17;;;;;;;14.33;10.93;;;5.70;73.50;;;;;;5026592;28;20056;-72
2024/01/31 11:24:46;;;;;;;11.27;9.30;;;5.70;73.40;;;;;;5028238;28;20052;-74
2024/01/31 11:27:14;;;;;;;11.33;9.33;;;5.70;73.50;;;;;;5024301;28;20389;-72
2024/01/31 11:29:42;;;;;;;10.77;9.07;;;5.70;73.10;;;;;;5005960;28;20053;-74
2024/01/31 11:32:09;;;;;;;12.33;9.47;;;5.70;73.10;;;;;;5024400;28;20531;-73
2024/01/31 11:34:39;;;;;;;10.30;8.37;;;5.70;73.20;;;;;;5025043;28;20568;-72
2024/01/31 11:37:05;;;;;;;9.13;6.63;;;5.80;73.20;;;;;;5024476;28;20083;-73
2024/01/31 11:39:31;;;;;;;10.83;8.60;;;5.80;72.50;;;;;;5022029;28;20492;-73
2024/01/31 11:41:56;;;;;;;11.00;8.70;;;5.80;72.80;;;;;;5022411;28;20056;-72
2024/01/31 11:44:22;;;;;;;9.50;7.80;;;5.80;72.80;;;;;;5024352;28;20486;-73
2024/01/31 11:46:50;;;;;;;10.53;7.73;;;5.80;72.90;;;;;;5023671;28;20076;-74
2024/01/31 11:49:16;;;;;;;8.97;7.33;;;5.80;73.20;;;;;;5023936;28;20041;-74
2024/01/31 11:51:42;;;;;;;11.23;8.10;;;5.80;73.00;;;;;;5024001;28;20052;-73
2024/01/31 11:54:09;;;;;;;8.77;6.90;;;5.80;73.00;;;;;;5025370;28;20150;-74
2024/01/31 11:56:35;;;;;;;11.47;7.77;;;5.90;73.30;;;;;;5024221;28;20092;-72
2024/01/31 11:59:03;;;;;;;10.00;7.50;;;5.80;73.20;;;;;;5025022;28;20079;-74
2024/01/31 12:01:30;;;;;;;10.73;6.67;;;5.80;73.00;;;;;;5007358;28;20079;-72
2024/01/31 12:03:56;;;;;;;10.33;7.00;;;5.80;73.00;;;;;;5021609;28;20516;-73
2024/01/31 12:06:22;;;;;;;11.67;6.93;;;5.90;73.10;;;;;;5005767;28;20072;-74
2024/01/31 12:08:49;;;;;;;10.13;6.47;;;5.90;73.00;;;;;;5024178;28;20567;-74
2024/01/31 12:11:18;;;;;;;10.00;7.70;;;5.90;73.20;;;;;;5022715;28;20057;-74
2024/01/31 12:13:45;;;;;;;10.37;7.47;;;5.90;73.10;;;;;;5024588;28;20412;-75
2024/01/31 12:16:11;;;;;;;11.50;7.50;;;5.90;73.20;;;;;;5024912;28;20677;-71
2024/01/31 12:18:37;;;;;;;10.07;7.33;;;5.90;72.90;;;;;;5024461;28;20061;-73
2024/01/31 12:21:03;;;;;;;10.83;7.00;;;5.90;73.10;;;;;;5022726;28;20049;-72
2024/01/31 12:23:29;;;;;;;9.10;6.70;;;5.90;73.10;;;;;;5023409;28;20516;-73
2024/01/31 12:25:56;;;;;;;11.70;7.73;;;5.90;72.80;;;;;;5023082;28;20053;-73
2024/01/31 12:28:22;;;;;;;9.83;7.83;;;5.80;72.80;;;;;;5024958;28;20087;-74
2024/01/31 12:30:48;;;;;;;10.60;7.53;;;5.90;73.20;;;;;;5023607;28;20053;-72
2024/01/31 12:33:14;;;;;;;10.50;7.60;;;5.90;73.00;;;;;;5023951;28;20142;-71
2024/01/31 12:35:39;;;;;;;8.00;6.03;;;5.90;72.80;;;;;;5023380;28;20680;-73
2024/01/31 12:38:05;;;;;;;10.63;6.40;;;5.90;72.60;;;;;;5021414;28;20053;-72
2024/01/31 12:40:31;;;;;;;13.00;7.63;;;5.90;72.50;;;;;;5020531;28;20044;-72
2024/01/31 12:42:57;;;;;;;10.67;7.53;;;5.90;72.50;;;;;;5005909;28;20465;-74
2024/01/31 12:45:23;;;;;;;11.27;8.10;;;5.90;73.00;;;;;;5023249;28;20049;-74